Time;durP1;ratioP1;P1;durP2;ratioP2;P2;SDS_P1;SDS_P2;PMS_P1;PMS_P2;Temp;Humidity;BMP_temperature;BMP_pressure;BME280_temperature;BME280_humidity;BME280_pressure;Samples;Min_cycle;Max_cycle;Signal;HPM_P1;HPM_P2
2023/06/25 00:01:34;;;;;;;6.33;5.73;;;25.60;58.50;;;;;;6268702;22;20170;-67
2023/06/25 00:04:00;;;;;;;7.77;6.27;;;25.60;58.10;;;;;;6267255;22;20155;-67
2023/06/25 00:06:25;;;;;;;7.60;6.80;;;25.60;58.10;;;;;;6268927;22;20369;-67
2023/06/25 00:08:51;;;;;;;6.80;6.20;;;25.60;58.10;;;;;;6268738;22;20178;-67
2023/06/25 00:11:16;;;;;;;8.97;6.00;;;25.50;58.40;;;;;;6267803;22;20146;-67
2023/06/25 00:13:42;;;;;;;7.07;6.33;;;25.50;58.50;;;;;;6267646;22;20605;-67
2023/06/25 00:16:08;;;;;;;7.00;6.30;;;25.40;58.80;;;;;;6267623;22;20150;-67
2023/06/25 00:18:34;;;;;;;7.40;6.50;;;25.40;58.90;;;;;;6240937;22;20194;-67
2023/06/25 00:21:01;;;;;;;8.43;7.23;;;25.30;58.80;;;;;;6267275;22;20405;-67
2023/06/25 00:23:27;;;;;;;7.27;6.10;;;25.30;58.70;;;;;;6268361;22;20225;-67
2023/06/25 00:25:52;;;;;;;7.13;6.43;;;25.30;58.70;;;;;;6267416;22;20412;-67
2023/06/25 00:28:18;;;;;;;6.97;6.27;;;25.30;58.60;;;;;;6267997;22;20174;-67
2023/06/25 00:30:44;;;;;;;7.27;6.43;;;25.30;58.70;;;;;;6267191;22;20155;-67
2023/06/25 00:33:09;;;;;;;6.67;5.87;;;25.20;58.70;;;;;;6268107;22;20162;-67
2023/06/25 00:35:50;;;;;;;7.10;6.40;;;25.20;59.10;;;;;;6267020;22;20151;-68
2023/06/25 00:38:17;;;;;;;6.47;5.87;;;25.10;59.10;;;;;;6268167;22;20178;-67
2023/06/25 00:40:42;;;;;;;6.87;6.17;;;25.10;59.10;;;;;;6267131;22;20415;-67
2023/06/25 00:43:08;;;;;;;13.63;6.30;;;25.10;59.00;;;;;;6268118;22;20841;-67
2023/06/25 00:45:34;;;;;;;6.37;5.77;;;25.10;59.10;;;;;;6267363;22;20582;-67
2023/06/25 00:48:01;;;;;;;7.30;6.60;;;25.00;59.20;;;;;;6265353;22;20522;-67
2023/06/25 00:50:27;;;;;;;8.30;6.13;;;25.00;59.30;;;;;;6267631;22;20373;-67
2023/06/25 00:52:52;;;;;;;6.73;6.03;;;24.90;59.80;;;;;;6268632;22;20712;-67
2023/06/25 00:55:19;;;;;;;8.50;7.67;;;24.90;59.90;;;;;;6266124;22;20147;-67
2023/06/25 00:57:45;;;;;;;6.87;6.17;;;24.90;59.70;;;;;;6267951;22;20184;-67
2023/06/25 01:00:19;;;;;;;6.30;5.70;;;24.90;59.70;;;;;;6267112;22;20413;-67
2023/06/25 01:03:03;;;;;;;6.30;5.70;;;24.90;59.80;;;;;;6267424;22;20437;-66
2023/06/25 01:05:55;;;;;;;9.73;5.67;;;24.80;59.90;;;;;;6265565;22;20381;-66
2023/06/25 01:08:21;;;;;;;6.83;5.13;;;24.80;60.00;;;;;;6266333;22;20488;-66
2023/06/25 01:10:47;;;;;;;8.07;5.60;;;24.70;60.00;;;;;;6267860;22;20385;-66
2023/06/25 01:13:13;;;;;;;6.97;5.60;;;24.70;60.00;;;;;;6267574;22;20856;-66
2023/06/25 01:15:38;;;;;;;6.60;6.00;;;24.60;59.80;;;;;;6266890;22;20146;-66
2023/06/25 01:18:04;;;;;;;6.20;5.70;;;24.70;59.90;;;;;;6266545;22;20193;-66
2023/06/25 01:20:30;;;;;;;5.90;5.37;;;24.60;59.80;;;;;;6267071;22;20155;-66
2023/06/25 01:22:57;;;;;;;5.73;4.83;;;24.60;59.80;;;;;;6268265;22;20369;-66
2023/06/25 01:25:23;;;;;;;6.23;5.60;;;24.50;59.90;;;;;;6266547;22;20284;-66
2023/06/25 01:27:51;;;;;;;5.80;5.30;;;24.50;60.10;;;;;;6266625;22;20877;-67
2023/06/25 01:30:18;;;;;;;7.30;5.20;;;24.50;60.30;;;;;;6266262;22;20404;-66
2023/06/25 01:32:44;;;;;;;6.10;5.50;;;24.50;60.20;;;;;;6266898;22;20832;-66
2023/06/25 01:35:14;;;;;;;6.57;5.93;;;24.50;60.30;;;;;;6265701;22;20488;-66
2023/06/25 01:37:40;;;;;;;6.23;5.67;;;24.40;60.30;;;;;;6267336;22;20474;-67
2023/06/25 01:40:07;;;;;;;6.83;6.07;;;24.40;60.30;;;;;;6265405;22;20861;-66
2023/06/25 01:42:34;;;;;;;5.90;5.40;;;24.30;61.10;;;;;;6268020;22;20154;-67
2023/06/25 01:44:59;;;;;;;6.13;5.53;;;24.30;61.10;;;;;;6267133;22;20372;-66
2023/06/25 01:47:25;;;;;;;5.97;5.37;;;24.30;61.10;;;;;;6267370;22;20365;-66
2023/06/25 01:49:50;;;;;;;6.97;6.27;;;24.30;61.10;;;;;;6266147;22;20177;-67
2023/06/25 01:52:16;;;;;;;7.77;6.97;;;24.30;61.50;;;;;;6268278;22;20151;-67
2023/06/25 01:54:42;;;;;;;6.20;5.60;;;24.20;61.50;;;;;;6267519;22;20151;-67
2023/06/25 01:57:07;;;;;;;6.00;5.40;;;24.20;61.40;;;;;;6242512;22;20165;-67
2023/06/25 01:59:36;;;;;;;8.73;5.77;;;24.20;61.30;;;;;;6269575;22;20683;-66
2023/06/25 02:02:02;;;;;;;7.50;5.87;;;24.20;61.60;;;;;;6269120;22;20158;-67
2023/06/25 02:04:28;;;;;;;6.00;5.37;;;24.10;62.70;;;;;;6269478;22;20369;-67
2023/06/25 02:06:54;;;;;;;6.57;5.87;;;24.00;62.00;;;;;;6270223;22;20376;-67
2023/06/25 02:09:20;;;;;;;6.37;5.70;;;24.00;62.30;;;;;;6268695;22;20170;-67
2023/06/25 02:11:46;;;;;;;6.83;6.03;;;24.00;62.80;;;;;;6268471;22;20463;-67
2023/06/25 02:14:11;;;;;;;6.30;5.70;;;23.90;62.80;;;;;;6268399;22;20397;-67
2023/06/25 02:16:37;;;;;;;7.63;6.43;;;23.90;62.90;;;;;;6269930;22;20146;-67
2023/06/25 02:19:02;;;;;;;7.43;6.67;;;23.90;63.30;;;;;;6267829;22;20638;-67
2023/06/25 02:21:28;;;;;;;6.40;5.70;;;23.90;63.40;;;;;;6242136;22;20630;-67
2023/06/25 02:23:54;;;;;;;6.50;5.80;;;23.90;63.30;;;;;;6268075;22;20348;-67
2023/06/25 02:26:19;;;;;;;7.00;6.30;;;23.90;63.30;;;;;;6269279;22;20151;-67
2023/06/25 02:28:45;;;;;;;6.97;6.33;;;23.90;63.20;;;;;;6269164;22;20174;-67
2023/06/25 02:31:10;;;;;;;6.93;6.23;;;23.80;63.50;;;;;;6268203;22;20147;-67
2023/06/25 02:33:36;;;;;;;8.60;7.00;;;23.80;63.60;;;;;;6269355;22;20229;-67
2023/06/25 02:36:02;;;;;;;6.70;6.10;;;23.80;63.60;;;;;;6267950;22;20209;-67
2023/06/25 02:38:27;;;;;;;7.20;5.93;;;23.80;63.90;;;;;;6242323;22;20257;-67
2023/06/25 02:40:53;;;;;;;6.27;5.13;;;23.80;63.80;;;;;;6268694;22;20401;-67
2023/06/25 02:43:18;;;;;;;6.27;5.67;;;23.80;63.90;;;;;;6268311;22;20764;-67
2023/06/25 02:45:44;;;;;;;6.50;5.90;;;23.80;64.20;;;;;;6269019;22;20218;-68
2023/06/25 02:48:10;;;;;;;7.33;6.63;;;23.70;64.00;;;;;;6268604;22;20185;-67
2023/06/25 02:50:35;;;;;;;6.80;6.20;;;23.70;64.20;;;;;;6269325;22;20150;-67
2023/06/25 02:53:01;;;;;;;5.70;5.20;;;23.70;64.40;;;;;;6266669;22;20147;-67
2023/06/25 02:55:26;;;;;;;6.43;5.83;;;23.70;64.90;;;;;;6269155;22;20150;-67
2023/06/25 02:57:52;;;;;;;6.77;5.67;;;23.70;64.70;;;;;;6268530;22;20257;-67
2023/06/25 03:00:17;;;;;;;7.70;6.27;;;23.60;64.50;;;;;;6268314;22;20162;-67
2023/06/25 03:02:43;;;;;;;7.30;6.30;;;23.60;64.60;;;;;;6269217;22;20173;-67
2023/06/25 03:05:09;;;;;;;7.90;7.00;;;23.60;64.80;;;;;;6269483;22;20150;-67
2023/06/25 03:07:34;;;;;;;5.93;5.43;;;23.60;64.80;;;;;;6268215;22;20157;-67
2023/06/25 03:10:00;;;;;;;8.17;7.37;;;23.60;65.00;;;;;;6267828;22;20151;-67
2023/06/25 03:12:25;;;;;;;6.70;6.00;;;23.60;65.10;;;;;;6269290;22;20170;-67
2023/06/25 03:14:51;;;;;;;6.50;5.40;;;23.50;65.50;;;;;;6268621;22;20158;-67
2023/06/25 03:17:16;;;;;;;6.60;6.00;;;23.50;65.60;;;;;;6268885;22;20182;-67
2023/06/25 03:19:42;;;;;;;7.00;6.23;;;23.50;65.80;;;;;;6267423;22;20174;-67
2023/06/25 03:22:07;;;;;;;8.10;6.40;;;23.50;66.20;;;;;;6270027;22;20147;-67
2023/06/25 03:24:33;;;;;;;6.23;5.63;;;23.50;66.60;;;;;;6267698;22;20221;-67
2023/06/25 03:26:59;;;;;;;6.27;5.77;;;23.40;66.70;;;;;;6269253;22;20472;-67
2023/06/25 03:29:24;;;;;;;7.50;6.80;;;23.40;66.90;;;;;;6267899;22;20197;-67
2023/06/25 03:31:50;;;;;;;6.93;6.33;;;23.40;67.20;;;;;;6268909;22;20150;-67
2023/06/25 03:34:15;;;;;;;7.70;6.57;;;23.40;67.50;;;;;;6268143;22;20143;-67
2023/06/25 03:36:41;;;;;;;7.57;6.20;;;23.30;67.70;;;;;;6268236;22;20157;-67
2023/06/25 03:39:07;;;;;;;7.37;6.67;;;23.30;68.00;;;;;;6268568;22;20213;-67
2023/06/25 03:41:32;;;;;;;7.30;6.60;;;23.30;68.30;;;;;;6268369;22;20192;-67
2023/06/25 03:43:58;;;;;;;9.20;6.70;;;23.20;68.50;;;;;;6267110;22;20142;-67
2023/06/25 03:46:23;;;;;;;8.23;6.30;;;23.20;68.70;;;;;;6267500;22;20154;-66
2023/06/25 03:48:49;;;;;;;7.30;6.33;;;23.20;68.80;;;;;;6267814;22;20170;-66
2023/06/25 03:51:14;;;;;;;7.50;6.50;;;23.10;69.00;;;;;;6269274;22;20586;-67
2023/06/25 03:53:40;;;;;;;6.97;6.30;;;23.10;69.20;;;;;;6268688;22;20150;-67
2023/06/25 03:56:06;;;;;;;7.00;6.30;;;23.10;69.40;;;;;;6267927;22;20150;-67
2023/06/25 03:59:10;;;;;;;6.90;6.20;;;23.10;69.70;;;;;;6268374;22;20490;-67
2023/06/25 04:01:36;;;;;;;7.17;6.37;;;23.00;69.80;;;;;;6240992;22;20405;-67
2023/06/25 04:04:01;;;;;;;7.50;6.77;;;23.00;69.90;;;;;;6268079;22;20416;-67
2023/06/25 04:06:27;;;;;;;7.50;6.50;;;23.00;70.10;;;;;;6267269;22;20176;-67
2023/06/25 04:08:52;;;;;;;6.47;5.87;;;22.90;70.40;;;;;;6267757;22;20170;-67
2023/06/25 04:11:18;;;;;;;6.63;6.03;;;22.90;70.50;;;;;;6267646;22;20150;-67
2023/06/25 04:13:43;;;;;;;7.97;6.40;;;22.90;70.50;;;;;;6268562;22;20158;-67
2023/06/25 04:16:09;;;;;;;6.80;6.20;;;22.80;70.70;;;;;;6267124;22;20582;-67
2023/06/25 04:18:37;;;;;;;7.07;6.37;;;22.80;70.90;;;;;;6267896;22;20232;-67
2023/06/25 04:21:03;;;;;;;11.70;6.53;;;22.80;71.10;;;;;;6267932;22;20147;-67
2023/06/25 04:23:29;;;;;;;7.27;6.50;;;22.70;71.30;;;;;;6268345;22;20366;-67
2023/06/25 04:25:54;;;;;;;7.87;6.17;;;22.70;71.50;;;;;;6265978;22;20157;-67
2023/06/25 04:28:20;;;;;;;6.77;6.07;;;22.70;71.60;;;;;;6267991;22;20167;-67
2023/06/25 04:30:45;;;;;;;7.43;6.33;;;22.70;72.10;;;;;;6266941;22;20150;-67
2023/06/25 04:33:11;;;;;;;8.00;6.80;;;22.70;72.30;;;;;;6269060;22;20150;-67
2023/06/25 04:35:36;;;;;;;6.50;5.90;;;22.70;72.40;;;;;;6266032;22;20150;-66
2023/06/25 04:38:02;;;;;;;6.43;5.83;;;22.70;72.50;;;;;;6267443;22;20189;-67
2023/06/25 04:40:28;;;;;;;7.10;6.40;;;22.70;72.60;;;;;;6266364;22;20771;-66
2023/06/25 04:42:54;;;;;;;6.40;5.80;;;22.70;72.70;;;;;;6267820;22;20170;-66
2023/06/25 04:45:19;;;;;;;7.97;7.17;;;22.60;72.80;;;;;;6267458;22;20374;-67
2023/06/25 04:47:45;;;;;;;8.33;6.77;;;22.60;72.90;;;;;;6267357;22;20150;-67
2023/06/25 04:50:11;;;;;;;6.30;5.70;;;22.60;73.20;;;;;;6267920;22;20180;-67
2023/06/25 04:52:36;;;;;;;8.30;6.10;;;22.60;73.40;;;;;;6267971;22;20150;-67
2023/06/25 04:55:02;;;;;;;6.27;5.67;;;22.60;73.50;;;;;;6265741;22;20464;-67
2023/06/25 04:57:27;;;;;;;6.80;6.20;;;22.60;73.80;;;;;;6265899;22;20357;-67
2023/06/25 04:59:53;;;;;;;6.73;6.10;;;22.60;74.30;;;;;;6266045;22;20228;-67
2023/06/25 05:02:18;;;;;;;7.63;6.40;;;22.60;74.40;;;;;;6268417;22;20139;-67
2023/06/25 05:04:44;;;;;;;6.77;6.17;;;22.60;74.40;;;;;;6267114;22;20142;-67
2023/06/25 05:07:10;;;;;;;7.00;6.30;;;22.60;74.60;;;;;;6268372;22;20245;-67
2023/06/25 05:09:36;;;;;;;6.83;6.23;;;22.60;74.90;;;;;;6267342;22;20249;-67
2023/06/25 05:12:02;;;;;;;6.93;6.23;;;22.60;74.90;;;;;;6268128;22;20408;-67
2023/06/25 05:14:27;;;;;;;7.07;6.37;;;22.60;75.00;;;;;;6266736;22;20153;-67
2023/06/25 05:16:53;;;;;;;7.10;6.40;;;22.60;75.50;;;;;;6268137;22;20369;-67
2023/06/25 05:19:19;;;;;;;7.13;6.47;;;22.60;75.70;;;;;;6267450;22;20213;-67
2023/06/25 05:21:44;;;;;;;7.13;6.43;;;22.60;75.60;;;;;;6267138;22;20161;-67
2023/06/25 05:24:10;;;;;;;6.53;5.80;;;22.60;75.90;;;;;;6267385;22;20495;-67
2023/06/25 05:26:35;;;;;;;6.93;6.23;;;22.60;76.20;;;;;;6268479;22;20600;-67
2023/06/25 05:29:02;;;;;;;7.37;6.50;;;22.70;76.20;;;;;;6266958;22;21047;-67
2023/06/25 05:31:29;;;;;;;8.63;7.60;;;22.70;76.10;;;;;;6267234;22;20196;-67
2023/06/25 05:33:54;;;;;;;7.10;6.40;;;22.70;76.00;;;;;;6267026;22;20487;-67
2023/06/25 05:36:21;;;;;;;8.20;6.40;;;22.70;76.10;;;;;;6267571;22;20409;-67
2023/06/25 05:38:46;;;;;;;7.33;6.60;;;22.70;76.60;;;;;;6266897;22;20182;-67
2023/06/25 05:41:12;;;;;;;8.13;5.97;;;22.70;76.60;;;;;;6268048;22;20487;-67
2023/06/25 05:43:38;;;;;;;8.90;6.67;;;22.70;76.50;;;;;;6267005;22;20518;-67
2023/06/25 05:46:04;;;;;;;6.17;5.57;;;22.80;76.70;;;;;;6266772;22;20193;-67
2023/06/25 05:48:29;;;;;;;7.43;6.63;;;22.80;76.60;;;;;;6266713;22;20401;-67
2023/06/25 05:50:55;;;;;;;7.57;6.00;;;22.80;76.50;;;;;;6267995;22;20177;-67
2023/06/25 05:53:24;;;;;;;7.57;6.77;;;22.80;76.80;;;;;;6267995;22;20157;-67
2023/06/25 05:55:50;;;;;;;6.20;5.60;;;22.90;76.80;;;;;;6267060;22;20150;-67
2023/06/25 05:58:16;;;;;;;8.63;6.70;;;23.00;76.90;;;;;;6267275;22;20782;-67
2023/06/25 06:00:41;;;;;;;7.40;6.70;;;23.00;76.70;;;;;;6267214;22;20396;-67
2023/06/25 06:03:07;;;;;;;6.80;6.10;;;23.10;76.60;;;;;;6267593;22;20150;-67
2023/06/25 06:05:33;;;;;;;7.50;6.67;;;23.10;76.30;;;;;;6266829;22;20148;-67
2023/06/25 06:07:58;;;;;;;7.10;6.40;;;23.10;76.10;;;;;;6266717;22;20181;-67
2023/06/25 06:10:24;;;;;;;7.10;6.50;;;23.20;76.00;;;;;;6267350;22;20193;-67
2023/06/25 06:13:00;;;;;;;7.20;6.50;;;23.20;76.00;;;;;;6266818;22;20164;-67
2023/06/25 06:15:26;;;;;;;6.80;6.20;;;23.20;76.00;;;;;;6266061;22;20208;-67
2023/06/25 06:17:51;;;;;;;6.83;6.13;;;23.30;76.10;;;;;;6267082;22;20428;-67
2023/06/25 06:20:17;;;;;;;6.67;6.07;;;23.30;76.20;;;;;;6267073;22;20147;-67
2023/06/25 06:22:42;;;;;;;7.57;6.73;;;23.30;76.20;;;;;;6267127;22;20154;-67
2023/06/25 06:25:08;;;;;;;7.17;6.57;;;23.30;76.30;;;;;;6267430;22;20170;-67
2023/06/25 06:27:34;;;;;;;8.83;7.93;;;23.40;76.30;;;;;;6267093;22;20157;-67
2023/06/25 06:30:00;;;;;;;11.77;9.30;;;23.40;76.30;;;;;;6266610;22;20174;-67
2023/06/25 06:32:25;;;;;;;9.13;8.20;;;23.50;76.60;;;;;;6267631;22;20246;-67
2023/06/25 06:34:51;;;;;;;7.90;7.20;;;23.50;76.60;;;;;;6266722;22;20579;-67
2023/06/25 06:37:16;;;;;;;9.63;7.80;;;23.60;76.70;;;;;;6266537;22;20495;-67
2023/06/25 06:39:42;;;;;;;7.80;7.10;;;23.70;76.60;;;;;;6269332;22;20166;-67
2023/06/25 06:42:07;;;;;;;8.20;7.40;;;23.70;76.50;;;;;;6267963;22;20168;-67
2023/06/25 06:44:33;;;;;;;8.93;7.10;;;23.70;76.70;;;;;;6269096;22;20288;-67
2023/06/25 06:46:58;;;;;;;8.50;7.50;;;23.70;76.70;;;;;;6268141;22;20161;-67
2023/06/25 06:49:24;;;;;;;8.70;7.80;;;23.80;76.80;;;;;;6269724;22;20190;-67
2023/06/25 06:51:50;;;;;;;8.80;6.63;;;23.80;77.00;;;;;;6268630;22;20484;-67
2023/06/25 06:54:15;;;;;;;10.80;9.80;;;23.90;77.20;;;;;;6269734;22;20177;-67
2023/06/25 06:56:41;;;;;;;7.27;6.57;;;23.90;77.00;;;;;;6267363;22;20436;-67
2023/06/25 06:59:06;;;;;;;8.13;6.67;;;24.00;76.90;;;;;;6267714;22;20186;-67
2023/06/25 07:01:33;;;;;;;23.43;21.10;;;24.00;76.80;;;;;;6268581;22;20173;-67
2023/06/25 07:03:58;;;;;;;10.43;9.40;;;24.10;76.80;;;;;;6267013;22;20146;-67
2023/06/25 07:06:24;;;;;;;11.07;7.20;;;24.20;76.80;;;;;;6269037;22;20431;-67
2023/06/25 07:08:50;;;;;;;7.60;6.90;;;24.20;76.40;;;;;;6268038;22;20178;-67
2023/06/25 07:11:18;;;;;;;9.70;8.73;;;24.40;76.10;;;;;;6268077;22;20154;-67
2023/06/25 07:13:44;;;;;;;10.43;9.43;;;24.40;76.00;;;;;;6268230;22;20512;-67
2023/06/25 07:16:10;;;;;;;8.70;7.90;;;24.40;76.00;;;;;;6268533;22;20379;-67
2023/06/25 07:18:36;;;;;;;7.50;6.80;;;24.50;75.90;;;;;;6267321;22;20491;-67
2023/06/25 07:21:02;;;;;;;11.17;7.20;;;24.50;75.80;;;;;;6240695;22;20155;-67
2023/06/25 07:23:27;;;;;;;7.37;6.60;;;24.60;75.70;;;;;;6240778;22;20173;-68
2023/06/25 07:25:54;;;;;;;8.30;7.30;;;24.70;75.80;;;;;;6267429;22;20899;-68
2023/06/25 07:28:19;;;;;;;10.00;9.00;;;24.70;75.90;;;;;;6269432;22;20183;-67
2023/06/25 07:30:45;;;;;;;7.90;7.20;;;24.80;76.10;;;;;;6266782;22;20434;-68
2023/06/25 07:33:10;;;;;;;7.20;6.50;;;24.80;75.90;;;;;;6242721;22;20147;-67
2023/06/25 07:35:36;;;;;;;12.60;10.83;;;24.90;75.90;;;;;;6266735;22;20502;-67
2023/06/25 07:38:01;;;;;;;9.30;8.40;;;24.90;76.00;;;;;;6268236;22;20186;-67
2023/06/25 07:40:27;;;;;;;8.23;7.23;;;25.00;76.20;;;;;;6267479;22;20182;-68
2023/06/25 07:42:52;;;;;;;7.17;6.47;;;25.00;76.10;;;;;;6268691;22;20157;-67
2023/06/25 07:45:18;;;;;;;9.63;8.13;;;25.00;75.70;;;;;;6267963;22;20151;-67
2023/06/25 07:47:44;;;;;;;7.40;6.70;;;25.10;76.00;;;;;;6266902;22;20158;-67
2023/06/25 07:50:10;;;;;;;8.83;7.90;;;25.20;75.80;;;;;;6266995;22;20161;-67
2023/06/25 07:52:35;;;;;;;7.90;7.10;;;25.30;75.60;;;;;;6267133;22;20374;-67
2023/06/25 07:55:02;;;;;;;6.53;5.90;;;25.30;75.50;;;;;;6267893;22;20220;-67
2023/06/25 07:57:27;;;;;;;7.60;6.83;;;25.40;75.20;;;;;;6269152;22;20175;-67
2023/06/25 07:59:53;;;;;;;9.50;7.30;;;25.50;74.80;;;;;;6238796;22;20412;-67
2023/06/25 08:02:20;;;;;;;8.60;7.50;;;25.60;73.80;;;;;;6268629;22;20162;-67
2023/06/25 08:04:46;;;;;;;7.50;6.77;;;25.60;72.90;;;;;;6266353;22;20366;-67
2023/06/25 08:07:11;;;;;;;7.83;6.60;;;25.70;72.60;;;;;;6268499;22;20465;-67
2023/06/25 08:09:37;;;;;;;7.57;6.87;;;25.80;72.00;;;;;;6266304;22;20198;-67
2023/06/25 08:12:03;;;;;;;7.10;6.40;;;25.80;71.60;;;;;;6269109;22;20146;-67
2023/06/25 08:14:28;;;;;;;8.03;6.53;;;25.90;71.30;;;;;;6267703;22;20174;-67
2023/06/25 08:16:54;;;;;;;6.83;6.13;;;26.00;71.00;;;;;;6267045;22;20412;-67
2023/06/25 08:19:19;;;;;;;7.90;7.13;;;26.00;69.90;;;;;;6266689;22;20213;-67
2023/06/25 08:21:45;;;;;;;9.93;8.43;;;26.10;68.80;;;;;;6267601;22;20146;-67
2023/06/25 08:24:10;;;;;;;7.83;7.13;;;26.20;68.50;;;;;;6267036;22;20162;-67
2023/06/25 08:26:36;;;;;;;9.57;8.50;;;26.20;68.30;;;;;;6267632;22;20158;-68
2023/06/25 08:29:04;;;;;;;9.20;7.93;;;26.30;68.10;;;;;;6239746;22;20210;-67
2023/06/25 08:31:29;;;;;;;8.27;7.50;;;26.40;67.80;;;;;;6267795;22;20146;-67
2023/06/25 08:33:55;;;;;;;9.47;8.23;;;26.40;67.60;;;;;;6267266;22;20377;-67
2023/06/25 08:36:20;;;;;;;8.40;7.60;;;26.50;67.10;;;;;;6267277;22;20151;-67
2023/06/25 08:38:46;;;;;;;8.03;7.23;;;26.60;66.70;;;;;;6267148;22;20646;-67
2023/06/25 08:41:12;;;;;;;8.37;7.20;;;26.70;65.20;;;;;;6267276;22;20146;-67
2023/06/25 08:43:37;;;;;;;7.13;6.43;;;26.70;63.80;;;;;;6267444;22;20150;-67
2023/06/25 08:46:03;;;;;;;7.17;6.47;;;26.80;61.90;;;;;;6266545;22;20151;-67
2023/06/25 08:48:30;;;;;;;7.00;6.33;;;26.90;62.00;;;;;;6267343;22;20235;-67
2023/06/25 08:51:00;;;;;;;7.60;6.60;;;27.00;60.90;;;;;;6267724;22;20373;-67
2023/06/25 08:53:28;;;;;;;7.10;6.40;;;27.00;59.50;;;;;;6267159;22;20402;-67
2023/06/25 08:55:56;;;;;;;7.67;6.97;;;27.10;59.40;;;;;;6239199;22;20500;-67
2023/06/25 08:58:21;;;;;;;14.80;7.83;;;27.20;59.00;;;;;;6267938;22;20754;-67
2023/06/25 09:00:48;;;;;;;10.00;7.40;;;27.30;58.20;;;;;;6266348;22;20389;-67
2023/06/25 09:03:13;;;;;;;8.13;6.70;;;27.30;57.30;;;;;;6239811;22;20464;-67
2023/06/25 09:05:39;;;;;;;7.53;6.70;;;27.40;56.80;;;;;;6267266;22;20385;-67
2023/06/25 09:08:12;;;;;;;7.23;6.53;;;27.40;56.90;;;;;;6267577;22;20181;-67
2023/06/25 09:10:38;;;;;;;7.47;6.77;;;27.50;56.40;;;;;;6266651;22;20146;-67
2023/06/25 09:13:04;;;;;;;7.27;6.20;;;27.60;56.20;;;;;;6267949;22;20373;-67
2023/06/25 09:15:29;;;;;;;8.07;7.27;;;27.60;55.40;;;;;;6265062;22;20722;-67
2023/06/25 09:17:56;;;;;;;6.30;5.70;;;27.60;54.50;;;;;;6266370;22;20193;-67
2023/06/25 09:20:22;;;;;;;9.10;8.30;;;27.80;53.70;;;;;;6268066;22;20145;-67
2023/06/25 09:22:49;;;;;;;7.87;7.10;;;27.80;53.50;;;;;;6266942;22;20876;-67
2023/06/25 09:25:15;;;;;;;7.57;6.23;;;27.90;53.50;;;;;;6267641;22;20827;-67
2023/06/25 09:27:41;;;;;;;7.40;6.70;;;27.90;53.20;;;;;;6267245;22;20401;-67
2023/06/25 09:30:10;;;;;;;6.67;6.07;;;27.90;53.20;;;;;;6266910;22;20727;-67
2023/06/25 09:32:46;;;;;;;7.30;6.40;;;28.00;52.30;;;;;;6267085;22;20154;-67
2023/06/25 09:35:18;;;;;;;7.10;6.40;;;28.10;51.10;;;;;;6238270;22;20380;-67
2023/06/25 09:37:43;;;;;;;7.23;6.60;;;28.10;50.70;;;;;;6267574;22;20408;-67
2023/06/25 09:40:09;;;;;;;7.63;6.57;;;28.20;50.70;;;;;;6267232;22;20755;-67
2023/06/25 09:42:36;;;;;;;8.40;7.60;;;28.20;50.90;;;;;;6267682;22;20153;-67
2023/06/25 09:45:02;;;;;;;9.60;8.70;;;28.20;50.20;;;;;;6266884;22;20147;-67
2023/06/25 09:47:28;;;;;;;8.17;7.20;;;28.30;49.70;;;;;;6267106;22;21225;-67
2023/06/25 09:49:55;;;;;;;9.30;5.70;;;28.30;49.90;;;;;;6265736;22;20473;-67
2023/06/25 09:52:24;;;;;;;7.00;6.40;;;28.30;48.20;;;;;;6267941;22;20158;-67
2023/06/25 09:54:52;;;;;;;6.57;5.87;;;28.40;48.50;;;;;;6266602;22;20393;-67
2023/06/25 09:57:20;;;;;;;9.57;7.23;;;28.50;47.70;;;;;;6240532;22;20393;-67
2023/06/25 09:59:47;;;;;;;10.43;9.20;;;28.50;48.40;;;;;;6266026;22;20419;-67
2023/06/25 10:02:14;;;;;;;11.13;9.87;;;28.50;47.70;;;;;;6269213;22;20400;-67
2023/06/25 10:04:40;;;;;;;8.10;7.30;;;28.70;47.10;;;;;;6267295;22;20379;-67
2023/06/25 10:07:06;;;;;;;8.33;6.33;;;28.70;47.30;;;;;;6267457;22;20408;-67
2023/06/25 10:09:32;;;;;;;6.60;5.90;;;28.70;47.50;;;;;;6240463;22;20174;-67
2023/06/25 10:11:58;;;;;;;6.40;5.80;;;28.70;47.50;;;;;;6268583;22;20369;-67
2023/06/25 10:14:24;;;;;;;7.87;7.07;;;28.80;48.20;;;;;;6268778;22;20238;-68
2023/06/25 10:16:55;;;;;;;7.90;7.10;;;28.90;47.10;;;;;;6242296;22;20399;-67
2023/06/25 10:19:22;;;;;;;7.30;6.60;;;28.90;47.10;;;;;;6269190;22;20425;-68
2023/06/25 10:22:05;;;;;;;6.90;6.30;;;28.90;46.30;;;;;;6268942;22;20373;-67
2023/06/25 10:24:57;;;;;;;6.73;6.03;;;29.00;46.60;;;;;;6268857;22;20403;-67
2023/06/25 10:27:26;;;;;;;6.90;6.20;;;29.00;46.50;;;;;;6263771;22;20483;-67
2023/06/25 10:29:52;;;;;;;6.30;5.70;;;29.10;46.80;;;;;;6267665;22;20469;-67
2023/06/25 10:32:20;;;;;;;7.93;5.50;;;29.10;46.80;;;;;;6269542;22;20685;-67
2023/06/25 10:34:55;;;;;;;6.03;5.43;;;29.20;46.80;;;;;;6269201;22;20377;-67
2023/06/25 10:37:21;;;;;;;7.03;6.33;;;29.30;45.60;;;;;;6268006;22;20824;-68
2023/06/25 10:39:46;;;;;;;8.07;6.27;;;29.30;45.20;;;;;;6269155;22;20385;-67
2023/06/25 10:42:13;;;;;;;5.83;5.33;;;29.30;44.40;;;;;;6268056;22;20650;-67
2023/06/25 10:44:39;;;;;;;7.00;6.40;;;29.40;43.50;;;;;;6269226;22;20202;-69
2023/06/25 10:47:07;;;;;;;6.80;6.17;;;29.40;43.60;;;;;;6267458;22;20369;-67
2023/06/25 10:49:33;;;;;;;8.90;7.07;;;29.50;43.50;;;;;;6268300;22;20397;-67
2023/06/25 10:51:59;;;;;;;8.00;7.17;;;29.50;43.50;;;;;;6268306;22;20407;-67
2023/06/25 10:54:25;;;;;;;7.43;6.73;;;29.60;42.90;;;;;;6269116;22;20400;-69
2023/06/25 10:56:54;;;;;;;8.10;6.70;;;29.70;42.80;;;;;;6268262;22;20373;-67
2023/06/25 10:59:23;;;;;;;7.23;6.03;;;29.70;42.60;;;;;;6267464;22;20182;-67
2023/06/25 11:01:51;;;;;;;6.53;5.87;;;29.80;42.60;;;;;;6266459;22;21031;-67
2023/06/25 11:04:17;;;;;;;7.07;6.43;;;29.90;41.70;;;;;;6269195;22;20507;-67
2023/06/25 11:06:43;;;;;;;7.57;6.87;;;30.00;41.50;;;;;;6269202;22;20374;-67
2023/06/25 11:09:08;;;;;;;7.83;7.10;;;30.00;41.50;;;;;;6267045;22;20637;-67
2023/06/25 11:11:37;;;;;;;7.67;6.90;;;30.00;42.40;;;;;;6269400;22;20507;-67
2023/06/25 11:14:03;;;;;;;6.90;6.30;;;30.10;42.60;;;;;;6266906;22;20223;-67
2023/06/25 11:16:28;;;;;;;6.43;5.83;;;30.10;42.90;;;;;;6268307;22;20384;-67
2023/06/25 11:18:54;;;;;;;6.97;6.07;;;30.30;42.40;;;;;;6267141;22;20193;-67
2023/06/25 11:21:19;;;;;;;9.27;6.70;;;30.40;42.40;;;;;;6269164;22;20147;-67
2023/06/25 11:23:45;;;;;;;8.17;6.47;;;30.40;42.00;;;;;;6267292;22;20637;-68
2023/06/25 11:26:13;;;;;;;6.93;6.27;;;30.40;42.00;;;;;;6268211;22;20576;-67
2023/06/25 11:28:39;;;;;;;7.73;6.93;;;30.50;41.40;;;;;;6268887;22;20178;-67
2023/06/25 11:31:05;;;;;;;7.00;6.30;;;30.50;41.60;;;;;;6267079;22;20934;-67
2023/06/25 11:33:31;;;;;;;6.60;6.00;;;30.70;41.60;;;;;;6267275;22;20150;-67
2023/06/25 11:36:12;;;;;;;6.43;5.83;;;30.80;39.00;;;;;;6267838;22;20154;-68
2023/06/25 11:38:37;;;;;;;6.70;6.10;;;30.90;38.00;;;;;;6268015;22;20424;-68
2023/06/25 11:41:06;;;;;;;6.73;6.13;;;31.00;38.70;;;;;;6267933;22;20373;-68
2023/06/25 11:43:33;;;;;;;7.70;6.53;;;31.10;39.20;;;;;;6268504;22;20147;-67
2023/06/25 11:46:01;;;;;;;7.57;6.77;;;31.20;39.30;;;;;;6267572;22;20389;-67
2023/06/25 11:48:28;;;;;;;8.13;7.33;;;31.30;39.00;;;;;;6268042;22;20469;-67
2023/06/25 11:51:02;;;;;;;7.57;6.83;;;31.40;38.90;;;;;;6268009;22;20363;-67
2023/06/25 11:53:27;;;;;;;7.37;6.60;;;31.60;39.00;;;;;;6268441;22;20702;-67
2023/06/25 11:55:53;;;;;;;6.90;6.30;;;31.70;38.70;;;;;;6267346;22;20377;-68
2023/06/25 11:58:19;;;;;;;7.60;6.90;;;31.90;38.40;;;;;;6266789;22;20660;-68
2023/06/25 12:00:45;;;;;;;7.77;7.07;;;32.10;38.30;;;;;;6268289;22;20158;-68
2023/06/25 12:03:10;;;;;;;7.90;7.20;;;32.40;38.20;;;;;;6267448;22;20380;-67
2023/06/25 12:05:36;;;;;;;7.70;7.00;;;32.80;38.40;;;;;;6268100;22;20377;-67
2023/06/25 12:08:01;;;;;;;8.10;7.40;;;33.40;38.60;;;;;;6267632;22;20166;-67
2023/06/25 12:10:27;;;;;;;8.03;7.23;;;34.60;37.60;;;;;;6268033;22;20154;-67
2023/06/25 12:12:54;;;;;;;8.33;7.33;;;35.90;36.80;;;;;;6268106;22;20155;-68
2023/06/25 12:15:20;;;;;;;7.30;6.70;;;37.00;35.60;;;;;;6268031;22;20154;-68
2023/06/25 12:17:46;;;;;;;7.37;6.67;;;37.90;35.30;;;;;;6267971;22;20399;-68
2023/06/25 12:20:11;;;;;;;7.90;7.10;;;38.40;34.60;;;;;;6266905;22;20150;-68
2023/06/25 12:22:37;;;;;;;7.30;6.60;;;38.70;33.50;;;;;;6268557;22;20608;-68
2023/06/25 12:25:04;;;;;;;7.73;7.13;;;39.00;33.60;;;;;;6267367;22;20196;-68
2023/06/25 12:27:29;;;;;;;7.83;7.10;;;39.10;33.40;;;;;;6268615;22;20291;-68
2023/06/25 12:29:55;;;;;;;8.23;7.53;;;39.00;33.00;;;;;;6267238;22;20376;-68
2023/06/25 12:32:20;;;;;;;7.40;6.70;;;38.80;33.30;;;;;;6268055;22;20196;-68
2023/06/25 12:34:46;;;;;;;7.10;6.50;;;38.70;33.20;;;;;;6268413;22;20454;-68
2023/06/25 12:37:11;;;;;;;7.07;6.47;;;38.60;33.30;;;;;;6267596;22;20177;-68
2023/06/25 12:39:37;;;;;;;8.13;7.43;;;38.70;33.60;;;;;;6266766;22;20183;-68
2023/06/25 12:42:03;;;;;;;8.13;7.33;;;38.70;33.60;;;;;;6266319;22;20150;-68